Time;durP1;ratioP1;P1;durP2;ratioP2;P2;SDS_P1;SDS_P2;PMS_P1;PMS_P2;Temp;Humidity;BMP_temperature;BMP_pressure;BME280_temperature;BME280_humidity;BME280_pressure;Samples;Min_cycle;Max_cycle;Signal;HPM_P1;HPM_P2
2021/06/15 00:00:17;;;;;;;4.78;4.25;;;15.30;99.90;;;;;;5067125;28;20064;-75
2021/06/15 00:02:44;;;;;;;5.90;4.68;;;15.30;99.90;;;;;;5061594;28;20111;-75
2021/06/15 00:05:13;;;;;;;5.82;4.55;;;15.30;99.90;;;;;;5055083;28;20066;-74
2021/06/15 00:07:40;;;;;;;7.65;5.45;;;15.30;99.90;;;;;;5054669;28;20052;-75
2021/06/15 00:10:13;;;;;;;8.27;5.18;;;15.30;99.90;;;;;;5058907;28;20067;-75
2021/06/15 00:12:41;;;;;;;6.00;4.57;;;15.20;99.90;;;;;;5075011;28;20071;-74
2021/06/15 00:15:10;;;;;;;6.72;4.55;;;15.30;99.90;;;;;;5074390;28;20083;-74
2021/06/15 00:17:38;;;;;;;9.23;4.50;;;15.20;99.90;;;;;;5074866;28;20510;-74
2021/06/15 00:20:06;;;;;;;5.90;4.80;;;15.20;99.90;;;;;;5076388;28;20075;-74
2021/06/15 00:22:33;;;;;;;6.78;5.45;;;15.20;99.90;;;;;;5077885;28;20055;-74
2021/06/15 00:24:59;;;;;;;6.32;5.20;;;15.20;99.90;;;;;;5077002;28;20041;-76
2021/06/15 00:27:29;;;;;;;6.45;4.47;;;15.20;99.90;;;;;;5075378;28;20080;-75
2021/06/15 00:29:55;;;;;;;6.85;5.32;;;15.20;99.90;;;;;;5074656;28;20044;-74
2021/06/15 00:32:22;;;;;;;6.28;4.93;;;15.30;99.90;;;;;;5056309;28;20053;-75
2021/06/15 00:34:50;;;;;;;7.65;4.72;;;15.40;99.90;;;;;;5061443;28;20045;-76
2021/06/15 00:37:17;;;;;;;8.52;5.25;;;15.40;99.90;;;;;;5073971;28;20045;-75
2021/06/15 00:39:43;;;;;;;8.32;5.80;;;15.50;99.90;;;;;;5074066;28;20122;-75
2021/06/15 00:42:10;;;;;;;6.60;4.63;;;15.40;99.90;;;;;;5074163;28;20040;-74
2021/06/15 00:44:37;;;;;;;7.28;5.35;;;15.40;99.90;;;;;;5074254;28;20106;-74
2021/06/15 00:47:04;;;;;;;7.32;5.13;;;15.30;99.90;;;;;;5074358;28;20071;-74
2021/06/15 00:49:34;;;;;;;6.72;5.65;;;15.40;99.90;;;;;;5071357;28;20075;-74
2021/06/15 00:52:03;;;;;;;5.30;4.80;;;15.30;99.90;;;;;;5054910;28;20048;-74
2021/06/15 00:54:29;;;;;;;5.68;4.45;;;15.40;99.90;;;;;;5055096;28;20076;-74
2021/06/15 00:56:56;;;;;;;10.27;5.30;;;15.40;99.90;;;;;;5055349;28;20045;-75
2021/06/15 00:59:23;;;;;;;5.53;5.05;;;15.30;99.90;;;;;;5074001;28;20086;-74
2021/06/15 01:01:49;;;;;;;10.32;5.88;;;15.20;99.90;;;;;;5061180;28;20072;-74
2021/06/15 01:04:17;;;;;;;6.55;4.68;;;15.10;99.90;;;;;;5073168;28;20040;-74
2021/06/15 01:06:53;;;;;;;6.25;5.32;;;15.10;99.90;;;;;;5055032;28;20052;-74
2021/06/15 01:09:27;;;;;;;6.30;4.78;;;14.90;99.90;;;;;;5055731;28;20096;-73
2021/06/15 01:12:00;;;;;;;6.07;4.45;;;14.90;99.90;;;;;;5064444;28;20052;-75
2021/06/15 01:14:36;;;;;;;5.30;4.60;;;14.90;99.90;;;;;;5054420;28;20049;-75
2021/06/15 01:17:09;;;;;;;5.53;5.03;;;14.80;99.90;;;;;;5053033;28;20099;-75
2021/06/15 01:19:46;;;;;;;6.65;5.38;;;14.80;99.90;;;;;;5055664;28;20095;-75
2021/06/15 01:22:28;;;;;;;6.68;5.18;;;14.80;99.90;;;;;;5073301;28;20076;-75
2021/06/15 01:25:03;;;;;;;5.95;5.45;;;14.90;99.90;;;;;;5072417;28;20044;-75
2021/06/15 01:27:45;;;;;;;5.72;5.22;;;15.00;99.90;;;;;;5072286;28;20068;-74
2021/06/15 01:30:18;;;;;;;6.10;5.32;;;15.00;99.90;;;;;;5072600;28;20080;-75
2021/06/15 01:32:50;;;;;;;10.30;5.57;;;15.10;99.90;;;;;;5072325;28;20052;-75
2021/06/15 01:35:17;;;;;;;5.68;4.53;;;15.10;99.90;;;;;;5073098;28;20056;-75
2021/06/15 01:37:48;;;;;;;8.00;5.75;;;15.20;99.90;;;;;;5064714;28;20099;-74
2021/06/15 01:40:18;;;;;;;6.07;5.47;;;15.20;99.90;;;;;;5069492;28;20071;-75
2021/06/15 01:42:49;;;;;;;8.63;5.22;;;15.20;99.90;;;;;;5071017;28;20072;-74
2021/06/15 01:45:22;;;;;;;5.93;5.38;;;15.10;99.90;;;;;;5072708;28;20106;-74
2021/06/15 01:47:59;;;;;;;6.72;4.78;;;15.20;99.90;;;;;;5071900;28;20123;-74
2021/06/15 01:50:31;;;;;;;5.68;4.80;;;15.20;99.90;;;;;;5062063;28;20088;-74
2021/06/15 01:52:59;;;;;;;6.40;5.75;;;15.10;99.90;;;;;;5058343;28;20080;-74
2021/06/15 01:55:28;;;;;;;6.18;5.13;;;14.80;99.90;;;;;;5061494;28;20122;-74
2021/06/15 01:57:58;;;;;;;6.82;5.03;;;14.70;99.90;;;;;;5062627;28;20049;-74
2021/06/15 02:00:26;;;;;;;5.47;4.95;;;14.50;99.90;;;;;;5053650;28;20045;-75
2021/06/15 02:02:55;;;;;;;6.80;5.80;;;14.40;99.90;;;;;;5064761;28;20079;-74
2021/06/15 02:05:27;;;;;;;5.85;5.25;;;14.40;99.90;;;;;;5069560;28;20048;-75
2021/06/15 02:07:56;;;;;;;8.68;5.60;;;14.50;99.90;;;;;;5072645;28;20052;-74
2021/06/15 02:13:07;;;;;;;6.75;5.63;;;14.60;99.90;;;;;;5068227;28;20136;-75
2021/06/15 02:15:35;;;;;;;7.30;5.80;;;14.60;99.90;;;;;;5052833;28;20517;-75
2021/06/15 02:18:03;;;;;;;6.47;5.53;;;14.60;99.90;;;;;;5070536;28;20078;-75
2021/06/15 02:20:42;;;;;;;7.65;6.72;;;14.70;99.90;;;;;;5073388;28;20044;-74
2021/06/15 02:23:12;;;;;;;6.65;5.55;;;14.80;99.90;;;;;;5073205;28;20125;-74
2021/06/15 02:25:40;;;;;;;7.90;5.68;;;14.70;99.90;;;;;;5072598;28;20094;-73
2021/06/15 02:28:08;;;;;;;7.43;6.18;;;14.60;99.90;;;;;;5072436;28;20037;-74
2021/06/15 02:30:43;;;;;;;8.88;6.57;;;14.50;99.90;;;;;;5071959;28;20052;-73
2021/06/15 02:33:13;;;;;;;8.07;6.25;;;14.50;99.90;;;;;;5058149;28;20052;-74
2021/06/15 02:35:47;;;;;;;6.15;5.55;;;14.60;99.90;;;;;;5052340;28;20049;-74
2021/06/15 02:38:17;;;;;;;6.85;5.65;;;14.60;99.90;;;;;;5066244;28;20069;-73
2021/06/15 02:40:44;;;;;;;8.20;6.15;;;14.60;99.90;;;;;;5072438;28;20094;-74
2021/06/15 02:43:13;;;;;;;7.15;5.13;;;14.60;99.90;;;;;;5060371;28;20052;-75
2021/06/15 02:45:42;;;;;;;6.95;5.88;;;14.50;99.90;;;;;;5052351;28;20052;-74
2021/06/15 02:48:13;;;;;;;8.18;5.43;;;14.50;99.90;;;;;;5052720;28;20041;-74
2021/06/15 02:50:40;;;;;;;8.48;5.72;;;14.40;99.90;;;;;;5052903;28;20052;-74
2021/06/15 02:53:10;;;;;;;8.25;6.40;;;14.30;99.90;;;;;;5063672;28;20076;-75
2021/06/15 02:55:40;;;;;;;8.07;6.40;;;14.20;99.90;;;;;;5057057;28;20090;-74
2021/06/15 02:58:07;;;;;;;8.18;5.82;;;14.20;99.90;;;;;;5065288;28;20068;-75
2021/06/15 03:00:36;;;;;;;6.22;5.60;;;14.20;99.90;;;;;;5073523;28;20052;-75
2021/06/15 03:03:06;;;;;;;8.02;6.70;;;14.30;99.90;;;;;;5056345;28;20045;-74
2021/06/15 03:05:33;;;;;;;9.32;6.22;;;14.40;99.90;;;;;;5071465;28;20040;-75
2021/06/15 03:08:00;;;;;;;8.07;5.32;;;14.40;99.90;;;;;;5075810;28;20531;-75
2021/06/15 03:10:28;;;;;;;6.43;5.13;;;14.40;99.90;;;;;;5057878;28;20045;-75
2021/06/15 03:13:01;;;;;;;8.20;5.32;;;14.50;99.90;;;;;;5056109;28;20056;-75
2021/06/15 03:15:36;;;;;;;6.43;5.70;;;14.50;99.90;;;;;;5056696;28;20073;-74
2021/06/15 03:18:09;;;;;;;6.10;5.40;;;14.60;99.90;;;;;;5074834;28;20133;-75
2021/06/15 03:20:37;;;;;;;6.70;5.72;;;14.60;99.90;;;;;;5076047;28;20072;-75
2021/06/15 03:23:09;;;;;;;10.73;7.15;;;14.60;99.90;;;;;;5070729;28;20070;-76
2021/06/15 03:25:39;;;;;;;8.25;5.57;;;14.60;99.90;;;;;;5074555;28;20506;-75
2021/06/15 03:28:10;;;;;;;6.30;5.70;;;14.60;99.90;;;;;;5070789;28;20064;-76
2021/06/15 03:30:44;;;;;;;8.45;6.50;;;14.40;99.90;;;;;;5067003;28;20048;-72
2021/06/15 03:33:31;;;;;;;7.60;5.78;;;14.40;99.90;;;;;;5077279;28;20110;-77
2021/06/15 03:36:00;;;;;;;7.53;5.50;;;14.50;99.90;;;;;;5073278;28;20068;-74
2021/06/15 03:38:30;;;;;;;5.90;5.35;;;14.60;99.90;;;;;;5063964;28;20064;-78
2021/06/15 03:41:10;;;;;;;8.45;6.43;;;14.70;99.90;;;;;;5076945;28;20299;-77
2021/06/15 03:43:55;;;;;;;9.50;5.47;;;14.80;99.90;;;;;;5080107;28;20109;-78
2021/06/15 03:46:23;;;;;;;6.47;5.65;;;14.90;99.90;;;;;;5074689;28;20114;-76
2021/06/15 03:49:05;;;;;;;8.57;5.53;;;15.00;99.90;;;;;;5075516;28;20524;-79
2021/06/15 03:51:33;;;;;;;6.57;5.70;;;14.90;99.90;;;;;;5081948;23;20055;-78
2021/06/15 03:54:08;;;;;;;6.35;5.75;;;14.90;99.90;;;;;;5055450;28;20090;-76
2021/06/15 03:56:37;;;;;;;9.52;6.20;;;14.90;99.90;;;;;;5054292;28;20052;-78
2021/06/15 03:59:06;;;;;;;8.73;5.88;;;15.00;99.90;;;;;;5056059;28;20102;-76
2021/06/15 04:01:35;;;;;;;7.80;5.97;;;15.10;99.90;;;;;;5054575;28;20045;-76
2021/06/15 04:04:04;;;;;;;6.63;5.75;;;15.20;99.90;;;;;;5057248;28;20428;-77
2021/06/15 04:06:33;;;;;;;9.50;6.15;;;15.20;99.90;;;;;;5056132;28;20474;-76
2021/06/15 04:09:02;;;;;;;8.43;5.72;;;15.30;99.90;;;;;;5054507;28;20068;-73
2021/06/15 04:11:31;;;;;;;12.15;6.63;;;15.30;99.90;;;;;;5054959;28;20048;-76
2021/06/15 04:13:59;;;;;;;17.40;11.18;;;15.20;99.90;;;;;;5055184;28;20041;-76
2021/06/15 04:16:41;;;;;;;10.38;7.25;;;15.20;99.90;;;;;;5054509;28;20120;-75
2021/06/15 04:19:13;;;;;;;8.55;5.97;;;15.20;99.90;;;;;;5055340;28;20049;-75
2021/06/15 04:21:48;;;;;;;7.38;6.30;;;15.20;99.90;;;;;;5053219;28;20048;-75
2021/06/15 04:24:20;;;;;;;25.63;17.17;;;15.20;99.90;;;;;;5054493;28;20497;-74
2021/06/15 04:26:47;;;;;;;9.32;7.47;;;15.30;99.90;;;;;;5056237;28;20052;-78
2021/06/15 04:29:16;;;;;;;8.35;6.90;;;15.40;99.90;;;;;;5059128;28;20554;-79
2021/06/15 04:31:46;;;;;;;9.45;5.43;;;15.40;99.90;;;;;;5053961;28;20055;-75
2021/06/15 04:34:18;;;;;;;6.78;5.65;;;15.50;99.90;;;;;;5053870;28;20359;-75
2021/06/15 04:36:46;;;;;;;11.60;6.97;;;15.60;99.90;;;;;;5053863;28;20506;-73
2021/06/15 04:39:14;;;;;;;9.02;6.65;;;15.70;99.90;;;;;;5054325;28;20041;-72
2021/06/15 04:41:49;;;;;;;10.60;6.82;;;15.90;99.90;;;;;;5054902;28;20110;-76
2021/06/15 04:44:21;;;;;;;7.97;6.13;;;16.10;99.90;;;;;;5053919;28;20452;-75
2021/06/15 04:46:52;;;;;;;30.13;16.92;;;16.20;99.90;;;;;;5052992;28;20064;-73
2021/06/15 04:49:28;;;;;;;20.37;14.57;;;16.40;99.90;;;;;;5055257;28;20063;-78
2021/06/15 04:52:10;;;;;;;45.92;28.63;;;16.60;99.90;;;;;;5056103;28;20315;-77
2021/06/15 04:54:40;;;;;;;49.03;28.92;;;16.80;99.90;;;;;;5053315;28;20115;-74
2021/06/15 04:57:10;;;;;;;21.92;13.57;;;17.00;99.90;;;;;;5053369;28;20508;-73
2021/06/15 04:59:39;;;;;;;12.05;8.45;;;17.20;99.90;;;;;;5053110;28;20036;-72
2021/06/15 05:02:07;;;;;;;8.38;6.15;;;17.30;99.90;;;;;;5053273;28;20496;-73
2021/06/15 05:04:38;;;;;;;8.23;6.40;;;17.20;99.90;;;;;;5053394;28;20049;-71
2021/06/15 05:07:05;;;;;;;10.50;7.68;;;17.30;99.90;;;;;;5052964;28;20073;-73
2021/06/15 05:09:34;;;;;;;9.65;7.35;;;17.40;99.90;;;;;;5053184;28;20467;-74
2021/06/15 05:12:02;;;;;;;9.13;7.82;;;17.80;99.90;;;;;;5053507;28;20480;-74
2021/06/15 05:14:33;;;;;;;10.00;7.70;;;18.10;99.90;;;;;;5053570;28;20051;-73
2021/06/15 05:17:01;;;;;;;11.90;7.85;;;18.30;99.90;;;;;;5052419;28;20072;-76
2021/06/15 05:19:28;;;;;;;7.55;5.70;;;18.50;99.90;;;;;;5053085;28;20041;-76
2021/06/15 05:22:04;;;;;;;31.80;15.88;;;18.60;99.90;;;;;;5053090;28;20052;-78
2021/06/15 05:27:46;;;;;;;24.58;17.02;;;18.60;99.90;;;;;;5054731;28;20053;-77
2021/06/15 05:30:13;;;;;;;24.35;17.55;;;18.80;99.90;;;;;;5050714;28;20045;-76
2021/06/15 05:32:39;;;;;;;7.60;6.15;;;19.00;99.90;;;;;;5052953;28;20049;-74
2021/06/15 05:35:07;;;;;;;7.63;6.88;;;19.10;99.90;;;;;;5051793;28;20823;-74
2021/06/15 05:37:35;;;;;;;6.65;5.85;;;19.20;99.90;;;;;;5052028;28;20068;-76
2021/06/15 05:40:02;;;;;;;9.07;5.75;;;19.30;99.90;;;;;;5052094;28;20551;-76
2021/06/15 05:42:28;;;;;;;21.02;13.75;;;19.30;99.90;;;;;;5052526;28;20401;-76
2021/06/15 05:44:56;;;;;;;11.73;7.40;;;19.40;99.90;;;;;;5051779;28;20076;-74
2021/06/15 05:47:23;;;;;;;32.95;21.50;;;19.50;99.90;;;;;;5051885;28;20045;-75
2021/06/15 05:49:49;;;;;;;37.78;25.13;;;19.70;99.90;;;;;;5062750;28;20041;-75
2021/06/15 05:52:19;;;;;;;8.60;6.45;;;19.80;99.90;;;;;;5055017;28;20057;-77
2021/06/15 05:54:50;;;;;;;30.92;20.75;;;20.00;99.90;;;;;;5055740;28;20127;-77
2021/06/15 05:59:58;;;;;;;8.73;6.25;;;20.50;99.90;;;;;;5051946;28;20110;-75
2021/06/15 06:02:25;;;;;;;5.95;5.45;;;20.90;99.90;;;;;;5052524;28;20056;-75
2021/06/15 06:10:40;;;;;;;6.95;5.72;;;21.10;99.90;;;;;;5052320;28;20060;-76
2021/06/15 06:13:11;;;;;;;10.07;8.10;;;21.50;99.90;;;;;;5052618;28;20045;-77
2021/06/15 06:15:38;;;;;;;8.82;5.53;;;21.70;99.90;;;;;;5051837;28;20049;-75
2021/06/15 06:18:08;;;;;;;10.27;7.65;;;21.80;99.90;;;;;;5051986;28;20045;-74
2021/06/15 06:20:35;;;;;;;13.23;9.15;;;22.00;99.90;;;;;;5052644;28;20468;-75
2021/06/15 06:23:02;;;;;;;7.03;5.57;;;22.10;99.90;;;;;;5051831;28;20173;-75
2021/06/15 06:25:32;;;;;;;9.18;6.00;;;22.20;99.90;;;;;;5052444;28;20045;-71
2021/06/15 06:27:58;;;;;;;8.75;6.22;;;22.50;99.90;;;;;;5052477;28;20056;-76
2021/06/15 06:30:25;;;;;;;7.85;6.35;;;22.80;99.90;;;;;;5053461;28;20079;-75
2021/06/15 06:32:51;;;;;;;10.25;6.40;;;23.10;99.90;;;;;;5054792;28;20044;-75
2021/06/15 06:35:18;;;;;;;6.78;6.15;;;23.40;99.90;;;;;;5064864;28;20079;-79
2021/06/15 06:37:45;;;;;;;9.15;6.75;;;23.70;99.90;;;;;;5071808;28;20044;-74
2021/06/15 06:40:13;;;;;;;7.38;5.78;;;24.10;98.20;;;;;;5061253;28;20108;-78
2021/06/15 06:42:44;;;;;;;5.20;4.63;;;24.40;97.20;;;;;;5057065;28;20076;-79
2021/06/15 06:45:13;;;;;;;;;;;24.70;96.10;;;;;;5056342;28;20044;-79
2021/06/15 06:47:40;;;;;;;7.38;5.47;;;24.70;94.80;;;;;;5057289;28;20308;-73
2021/06/15 06:50:08;;;;;;;7.80;5.65;;;24.60;95.00;;;;;;5051474;28;20544;-72
2021/06/15 06:52:35;;;;;;;7.07;6.15;;;24.60;95.00;;;;;;5051391;28;20095;-72
2021/06/15 06:55:02;;;;;;;9.30;5.05;;;24.40;94.80;;;;;;5053074;28;20045;-74
2021/06/15 06:57:29;;;;;;;6.47;5.22;;;24.40;94.90;;;;;;5051632;28;20073;-73
2021/06/15 06:59:57;;;;;;;5.93;5.32;;;24.40;95.60;;;;;;5052983;28;20440;-79
2021/06/15 07:02:23;;;;;;;8.82;6.07;;;24.50;94.50;;;;;;5053003;28;20048;-76
2021/06/15 07:04:50;;;;;;;5.35;4.85;;;24.60;93.50;;;;;;5055162;28;20041;-75
2021/06/15 07:07:17;;;;;;;5.57;4.50;;;24.60;93.10;;;;;;5051318;28;20076;-75
2021/06/15 07:09:43;;;;;;;8.07;5.70;;;24.50;92.90;;;;;;5061411;28;20052;-78
2021/06/15 07:12:16;;;;;;;6.28;4.60;;;24.40;92.70;;;;;;5055108;28;20460;-73
2021/06/15 07:14:42;;;;;;;8.80;5.45;;;24.20;93.20;;;;;;5051513;28;20045;-72
2021/06/15 07:17:10;;;;;;;7.40;5.45;;;24.10;93.30;;;;;;5052541;28;20041;-74
2021/06/15 07:19:38;;;;;;;7.72;5.35;;;24.20;93.10;;;;;;5052364;28;20084;-77
2021/06/15 07:22:07;;;;;;;7.45;4.68;;;24.30;93.30;;;;;;5052672;28;20045;-74
2021/06/15 07:24:44;;;;;;;8.68;5.80;;;24.60;92.90;;;;;;5051493;28;20126;-77
2021/06/15 07:27:14;;;;;;;5.72;5.22;;;24.90;92.60;;;;;;5051419;28;20053;-75
2021/06/15 07:29:41;;;;;;;6.88;5.70;;;25.10;91.60;;;;;;5052927;28;20136;-74
2021/06/15 07:32:08;;;;;;;5.35;4.85;;;25.10;90.50;;;;;;5051376;28;20085;-70
2021/06/15 07:34:35;;;;;;;5.75;5.15;;;24.80;91.20;;;;;;5051400;28;20076;-75
2021/06/15 07:37:03;;;;;;;6.05;4.70;;;25.10;91.40;;;;;;5057242;28;20072;-78
2021/06/15 07:39:29;;;;;;;6.47;5.82;;;25.10;91.00;;;;;;5054086;28;20041;-73
2021/06/15 07:41:56;;;;;;;10.80;5.80;;;24.90;91.00;;;;;;5054913;28;20064;-75
2021/06/15 07:44:22;;;;;;;5.97;5.00;;;24.70;90.90;;;;;;5046695;28;20041;-74
2021/06/15 07:46:53;;;;;;;6.22;5.63;;;24.90;91.30;;;;;;5053318;28;20041;-77
2021/06/15 07:49:19;;;;;;;7.57;4.80;;;25.30;90.70;;;;;;5054750;28;20559;-74
2021/06/15 07:51:48;;;;;;;5.75;4.63;;;25.50;90.60;;;;;;5054888;28;20056;-78
2021/06/15 07:54:15;;;;;;;5.18;4.68;;;25.70;90.40;;;;;;5055182;28;20053;-76
2021/06/15 07:56:41;;;;;;;8.65;6.68;;;26.00;88.20;;;;;;5056879;28;20044;-74
2021/06/15 07:59:08;;;;;;;7.25;5.63;;;26.10;88.30;;;;;;5054848;28;20087;-77
2021/06/15 08:01:34;;;;;;;7.32;5.85;;;25.90;87.40;;;;;;5054617;28;20056;-73
2021/06/15 08:04:01;;;;;;;8.18;5.15;;;26.00;87.40;;;;;;5055460;28;20049;-73
2021/06/15 08:06:28;;;;;;;5.25;4.85;;;26.00;86.90;;;;;;5054562;28;20049;-72
2021/06/15 08:08:58;;;;;;;5.05;4.60;;;26.00;86.80;;;;;;5055086;28;20049;-76
2021/06/15 08:11:27;;;;;;;7.00;4.55;;;26.20;86.30;;;;;;5055328;28;20053;-78
2021/06/15 08:13:53;;;;;;;5.35;4.85;;;26.60;85.40;;;;;;5056059;28;20041;-76
2021/06/15 08:16:20;;;;;;;5.88;4.47;;;26.80;85.40;;;;;;5054220;28;20045;-73
2021/06/15 08:18:47;;;;;;;5.90;5.30;;;27.20;83.10;;;;;;5054129;28;20064;-74
2021/06/15 08:21:14;;;;;;;6.22;4.85;;;27.50;81.10;;;;;;5053414;28;20068;-73
2021/06/15 08:23:41;;;;;;;6.35;5.07;;;27.80;79.30;;;;;;5054342;28;20547;-74
2021/06/15 08:26:09;;;;;;;5.55;5.05;;;28.20;78.50;;;;;;5054038;28;20076;-74
2021/06/15 08:28:35;;;;;;;6.88;4.57;;;28.20;77.70;;;;;;5053895;28;20102;-74
2021/06/15 08:31:10;;;;;;;6.57;4.93;;;28.20;77.10;;;;;;5056668;28;20044;-78
2021/06/15 08:33:37;;;;;;;7.10;5.88;;;28.00;76.70;;;;;;5075251;28;20044;-79
2021/06/15 08:36:04;;;;;;;5.65;5.05;;;27.70;78.10;;;;;;5063019;28;20041;-72
2021/06/15 08:38:31;;;;;;;5.80;4.50;;;27.30;77.40;;;;;;5055089;28;20099;-72
2021/06/15 08:40:58;;;;;;;5.95;4.72;;;27.40;78.50;;;;;;5054723;28;20501;-73
2021/06/15 08:43:26;;;;;;;5.10;4.60;;;27.50;80.00;;;;;;5053746;28;20500;-72
2021/06/15 08:45:53;;;;;;;4.70;4.30;;;27.20;80.00;;;;;;5054462;28;20053;-72
2021/06/15 08:48:19;;;;;;;5.57;4.43;;;27.20;79.10;;;;;;5054496;28;20110;-72
2021/06/15 08:50:47;;;;;;;4.88;4.35;;;27.40;78.30;;;;;;5053366;28;20041;-72
2021/06/15 08:53:14;;;;;;;6.78;4.78;;;27.30;78.60;;;;;;5050967;28;20057;-73
2021/06/15 08:55:47;;;;;;;4.75;4.32;;;27.20;79.70;;;;;;5054094;28;20049;-73
2021/06/15 08:58:34;;;;;;;4.45;4.05;;;27.20;79.80;;;;;;5053360;28;20099;-73
2021/06/15 09:01:01;;;;;;;5.43;4.00;;;27.10;79.70;;;;;;5053747;28;20049;-72
2021/06/15 09:03:28;;;;;;;5.05;4.28;;;26.90;80.30;;;;;;5053596;28;20562;-73
2021/06/15 09:05:56;;;;;;;4.88;4.47;;;27.00;80.40;;;;;;5053541;28;20045;-72
2021/06/15 09:08:22;;;;;;;5.20;4.53;;;27.00;80.10;;;;;;5053565;28;20045;-73
2021/06/15 09:10:50;;;;;;;4.90;3.78;;;27.10;80.10;;;;;;5053176;28;20503;-73
2021/06/15 09:13:37;;;;;;;7.05;5.00;;;27.00;80.90;;;;;;5053185;28;20471;-74
2021/06/15 09:16:20;;;;;;;4.90;4.07;;;27.20;81.40;;;;;;5053230;28;20508;-73
2021/06/15 09:18:47;;;;;;;5.88;4.25;;;27.90;80.70;;;;;;5055412;28;20056;-73
2021/06/15 09:21:36;;;;;;;7.78;4.38;;;28.10;79.10;;;;;;5055474;28;20041;-74
2021/06/15 09:24:04;;;;;;;4.85;4.40;;;28.30;77.40;;;;;;5052787;28;20638;-73
2021/06/15 09:26:55;;;;;;;4.05;3.50;;;28.40;77.30;;;;;;5052865;28;20045;-73
2021/06/15 09:29:41;;;;;;;5.53;4.38;;;28.40;77.10;;;;;;5052831;28;20052;-73
2021/06/15 09:32:09;;;;;;;6.68;4.97;;;28.70;75.90;;;;;;5032837;28;20088;-73
2021/06/15 09:34:36;;;;;;;6.13;4.45;;;28.70;74.50;;;;;;5032941;28;20045;-74
2021/06/15 09:37:06;;;;;;;6.47;5.88;;;28.50;75.70;;;;;;5036601;28;20045;-73
2021/06/15 09:39:34;;;;;;;5.47;4.43;;;28.30;75.60;;;;;;5053214;28;20053;-73
2021/06/15 09:42:01;;;;;;;7.15;5.03;;;28.10;74.50;;;;;;5052846;28;20106;-73
2021/06/15 09:44:30;;;;;;;5.28;4.53;;;27.90;75.90;;;;;;5052864;28;20053;-73
2021/06/15 09:47:00;;;;;;;5.35;4.30;;;27.80;76.10;;;;;;5052471;28;20045;-74
2021/06/15 09:49:29;;;;;;;5.50;4.57;;;27.70;75.70;;;;;;5053060;28;20049;-74
2021/06/15 09:52:16;;;;;;;5.30;4.63;;;27.70;75.80;;;;;;5052657;28;20390;-73
2021/06/15 09:54:44;;;;;;;5.38;4.82;;;27.60;77.50;;;;;;5052627;28;20056;-74
2021/06/15 09:57:19;;;;;;;6.60;5.20;;;27.80;77.70;;;;;;5051833;28;20044;-73
2021/06/15 10:00:14;;;;;;;5.13;4.72;;;27.80;76.90;;;;;;5052702;28;20045;-73
2021/06/15 10:02:54;;;;;;;5.20;4.70;;;27.70;76.80;;;;;;5052389;28;20107;-74
2021/06/15 10:05:27;;;;;;;7.63;4.77;;;27.80;77.60;;;;;;5052243;28;20041;-72
2021/06/15 10:07:57;;;;;;;9.38;4.57;;;27.90;77.60;;;;;;5052313;28;20560;-73
2021/06/15 10:10:26;;;;;;;4.60;4.30;;;28.10;78.00;;;;;;5052627;28;20044;-74
2021/06/15 10:12:53;;;;;;;7.30;4.82;;;28.50;76.70;;;;;;5052364;28;20094;-74
2021/06/15 10:15:22;;;;;;;8.65;4.97;;;28.70;76.40;;;;;;5052384;28;20052;-74
2021/06/15 10:17:48;;;;;;;5.78;4.93;;;29.00;73.70;;;;;;5052495;28;20060;-74
2021/06/15 10:20:19;;;;;;;9.25;4.60;;;29.10;72.80;;;;;;5051939;28;20057;-74
2021/06/15 10:22:47;;;;;;;4.28;3.78;;;29.10;71.60;;;;;;5052121;28;20052;-73
2021/06/15 10:25:15;;;;;;;5.13;4.20;;;29.00;72.90;;;;;;5052282;28;20103;-74
2021/06/15 10:27:42;;;;;;;6.13;4.63;;;28.90;73.30;;;;;;5051769;28;20454;-73
2021/06/15 10:30:11;;;;;;;7.70;6.13;;;28.70;74.00;;;;;;5052279;28;20053;-73
2021/06/15 10:32:52;;;;;;;4.93;3.65;;;28.40;75.90;;;;;;5052168;28;20053;-75
2021/06/15 10:35:37;;;;;;;4.43;4.03;;;27.80;78.40;;;;;;5052157;28;20219;-74
2021/06/15 10:38:05;;;;;;;4.43;4.03;;;28.10;77.50;;;;;;5051816;28;20321;-73
2021/06/15 10:40:41;;;;;;;7.70;3.97;;;28.00;76.90;;;;;;5051984;28;20053;-74
2021/06/15 10:43:28;;;;;;;4.72;4.32;;;28.30;77.00;;;;;;5051850;28;20048;-74
2021/06/15 10:46:04;;;;;;;6.68;5.40;;;28.50;76.20;;;;;;5045802;28;20052;-74
2021/06/15 10:48:40;;;;;;;4.50;4.10;;;28.30;75.30;;;;;;5052962;28;20052;-74
2021/06/15 10:51:31;;;;;;;5.40;4.43;;;28.30;76.40;;;;;;5051820;28;20044;-73
2021/06/15 10:54:05;;;;;;;5.90;5.50;;;28.30;75.70;;;;;;5052310;28;20076;-72
2021/06/15 10:56:37;;;;;;;9.00;7.30;;;28.10;76.40;;;;;;5051745;28;20049;-73
2021/06/15 10:59:09;;;;;;;7.35;4.93;;;28.00;77.10;;;;;;5051595;28;20049;-73
2021/06/15 11:01:41;;;;;;;7.88;5.13;;;28.00;76.50;;;;;;5051736;28;20057;-74
2021/06/15 11:04:10;;;;;;;7.60;5.85;;;27.70;78.10;;;;;;5051704;28;20142;-75
2021/06/15 11:06:53;;;;;;;5.43;4.25;;;27.60;77.80;;;;;;4979890;28;20770;-73
2021/06/15 11:09:23;;;;;;;5.32;4.82;;;27.70;77.60;;;;;;5050988;28;20099;-73
2021/06/15 11:12:09;;;;;;;7.20;5.85;;;27.60;78.20;;;;;;5051532;28;20053;-72
2021/06/15 11:14:37;;;;;;;7.75;4.55;;;27.70;78.70;;;;;;5054589;28;20494;-72
2021/06/15 11:17:08;;;;;;;7.68;5.75;;;27.70;78.00;;;;;;5066410;28;20045;-72
2021/06/15 11:19:40;;;;;;;5.80;4.50;;;27.60;77.90;;;;;;5055658;28;20049;-70
2021/06/15 11:22:19;;;;;;;5.43;4.88;;;27.40;77.30;;;;;;5051225;28;20049;-71
2021/06/15 11:24:50;;;;;;;6.53;5.88;;;27.70;78.00;;;;;;5055222;28;20049;-72
2021/06/15 11:27:32;;;;;;;7.63;4.80;;;27.90;77.80;;;;;;5055174;28;20045;-72
2021/06/15 11:30:18;;;;;;;5.43;4.93;;;28.00;78.50;;;;;;5055402;28;20049;-71
2021/06/15 11:32:56;;;;;;;6.93;4.95;;;27.60;78.00;;;;;;5055343;28;20110;-71
2021/06/15 11:35:22;;;;;;;7.15;5.35;;;27.30;79.00;;;;;;5054939;28;20098;-72
2021/06/15 11:37:52;;;;;;;5.10;4.57;;;27.40;78.80;;;;;;5055204;28;20103;-72
2021/06/15 11:40:27;;;;;;;5.63;5.00;;;27.50;79.20;;;;;;5054842;28;20037;-73
2021/06/15 11:42:55;;;;;;;5.65;5.13;;;27.20;79.40;;;;;;5054681;28;20040;-72
2021/06/15 11:45:33;;;;;;;6.63;4.63;;;27.10;80.20;;;;;;5054803;28;20452;-71
2021/06/15 11:48:30;;;;;;;7.28;5.85;;;26.60;81.80;;;;;;5054723;28;20588;-72
2021/06/15 11:50:58;;;;;;;4.75;4.38;;;25.70;84.60;;;;;;5054911;28;20049;-74
2021/06/15 11:53:26;;;;;;;7.65;6.20;;;25.80;85.00;;;;;;5054795;28;20056;-75
2021/06/15 11:55:54;;;;;;;6.63;4.88;;;25.80;85.30;;;;;;5054301;28;20503;-74
2021/06/15 11:58:24;;;;;;;8.00;5.53;;;25.80;85.20;;;;;;5054804;28;20048;-70
2021/06/15 12:00:53;;;;;;;6.32;5.25;;;25.80;85.70;;;;;;5055047;28;20397;-71
2021/06/15 12:03:21;;;;;;;6.90;6.20;;;25.80;85.90;;;;;;5028241;28;20049;-73
2021/06/15 12:05:49;;;;;;;7.88;5.38;;;25.70;87.00;;;;;;5053470;28;20040;-75
2021/06/15 12:08:17;;;;;;;10.05;6.28;;;25.80;88.10;;;;;;5042850;28;20446;-78
2021/06/15 12:10:46;;;;;;;7.00;5.72;;;25.90;87.00;;;;;;5056681;28;20378;-76
2021/06/15 12:13:15;;;;;;;7.55;4.55;;;26.00;87.00;;;;;;5054903;28;20045;-77
2021/06/15 12:15:51;;;;;;;7.43;5.68;;;25.80;88.20;;;;;;5052593;28;20037;-74
2021/06/15 12:18:46;;;;;;;5.28;4.78;;;26.00;88.00;;;;;;5054123;28;20140;-76
2021/06/15 12:21:15;;;;;;;7.85;6.03;;;26.20;87.60;;;;;;5054165;28;20102;-72
2021/06/15 12:23:45;;;;;;;7.78;4.97;;;26.50;86.60;;;;;;5054214;28;20045;-71
2021/06/15 12:26:19;;;;;;;6.80;5.55;;;26.70;86.10;;;;;;5052769;28;20122;-74
2021/06/15 12:28:47;;;;;;;6.35;5.28;;;27.00;84.60;;;;;;5045296;28;20052;-72
2021/06/15 12:31:17;;;;;;;8.65;6.63;;;27.10;84.30;;;;;;5055071;28;20045;-72
2021/06/15 12:33:46;;;;;;;6.90;4.97;;;27.30;83.10;;;;;;5054894;28;20049;-73
2021/06/15 12:36:14;;;;;;;7.18;6.30;;;27.70;82.30;;;;;;5055460;28;20076;-72
2021/06/15 12:38:42;;;;;;;12.88;6.13;;;27.80;81.20;;;;;;5055241;28;20125;-72
2021/06/15 12:41:11;;;;;;;5.45;4.88;;;28.00;80.80;;;;;;5054720;28;20381;-71
2021/06/15 12:43:39;;;;;;;10.82;7.10;;;28.20;80.40;;;;;;5054821;28;20049;-72
2021/06/15 12:46:11;;;;;;;8.10;7.28;;;28.60;80.60;;;;;;5055128;28;20092;-73
2021/06/15 12:48:45;;;;;;;7.45;6.75;;;29.00;78.10;;;;;;5054712;28;20055;-73
2021/06/15 12:51:14;;;;;;;5.90;5.25;;;29.10;77.60;;;;;;5054841;28;20131;-73
2021/06/15 12:53:42;;;;;;;6.20;5.63;;;28.90;78.60;;;;;;5054584;28;20048;-71
2021/06/15 12:56:24;;;;;;;6.60;5.85;;;29.10;77.60;;;;;;5054115;28;20408;-72
2021/06/15 12:58:54;;;;;;;8.93;6.65;;;29.30;76.40;;;;;;5054372;28;20181;-73
2021/06/15 13:01:25;;;;;;;8.57;5.90;;;29.20;75.20;;;;;;5053898;28;20048;-72
2021/06/15 13:03:53;;;;;;;6.60;5.50;;;29.00;75.10;;;;;;5054117;28;20146;-73
2021/06/15 13:06:21;;;;;;;9.35;7.60;;;29.00;76.50;;;;;;5053713;28;20049;-72
2021/06/15 13:08:48;;;;;;;7.28;6.57;;;29.40;75.50;;;;;;5053668;28;20431;-73
2021/06/15 13:11:17;;;;;;;6.07;5.45;;;29.60;73.30;;;;;;5053812;28;20048;-73
2021/06/15 13:13:57;;;;;;;8.88;5.93;;;29.40;72.80;;;;;;5054031;28;20052;-72
2021/06/15 13:16:33;;;;;;;5.80;5.07;;;29.20;74.10;;;;;;5053607;28;20099;-72